sensor_id;sensor_type;location;lat;lon;timestamp;P1;durP1;ratioP1;P2;durP2;ratioP2
15637;SDS011;26604;53.596;10.042;2023-06-22T00:02:17;7.65;;;4.05;;
15637;SDS011;26604;53.596;10.042;2023-06-22T00:04:44;5.28;;;2.92;;
15637;SDS011;26604;53.596;10.042;2023-06-22T00:07:11;6.00;;;3.75;;
15637;SDS011;26604;53.596;10.042;2023-06-22T00:09:38;5.53;;;3.20;;
15637;SDS011;26604;53.596;10.042;2023-06-22T00:12:07;4.63;;;3.38;;
15637;SDS011;26604;53.596;10.042;2023-06-22T00:14:34;5.32;;;3.97;;
15637;SDS011;26604;53.596;10.042;2023-06-22T00:17:01;5.88;;;3.38;;
15637;SDS011;26604;53.596;10.042;2023-06-22T00:19:28;4.45;;;3.63;;
15637;SDS011;26604;53.596;10.042;2023-06-22T00:21:55;6.38;;;4.18;;
15637;SDS011;26604;53.596;10.042;2023-06-22T00:24:25;5.40;;;3.42;;
15637;SDS011;26604;53.596;10.042;2023-06-22T00:26:52;5.43;;;3.75;;
15637;SDS011;26604;53.596;10.042;2023-06-22T00:29:20;6.60;;;3.83;;
15637;SDS011;26604;53.596;10.042;2023-06-22T00:31:47;5.40;;;3.13;;
15637;SDS011;26604;53.596;10.042;2023-06-22T00:34:14;5.00;;;3.38;;
15637;SDS011;26604;53.596;10.042;2023-06-22T00:36:41;5.03;;;3.75;;
15637;SDS011;26604;53.596;10.042;2023-06-22T00:39:08;6.43;;;3.90;;
15637;SDS011;26604;53.596;10.042;2023-06-22T00:41:36;7.55;;;4.00;;
15637;SDS011;26604;53.596;10.042;2023-06-22T00:44:02;9.05;;;4.00;;
15637;SDS011;26604;53.596;10.042;2023-06-22T00:46:31;5.95;;;4.10;;
15637;SDS011;26604;53.596;10.042;2023-06-22T00:48:58;8.88;;;4.30;;
15637;SDS011;26604;53.596;10.042;2023-06-22T00:51:25;5.07;;;3.40;;
15637;SDS011;26604;53.596;10.042;2023-06-22T00:53:52;7.07;;;3.63;;
15637;SDS011;26604;53.596;10.042;2023-06-22T00:56:19;5.00;;;4.00;;
15637;SDS011;26604;53.596;10.042;2023-06-22T00:58:50;8.13;;;4.55;;
15637;SDS011;26604;53.596;10.042;2023-06-22T01:01:18;6.82;;;4.60;;
15637;SDS011;26604;53.596;10.042;2023-06-22T01:03:50;7.00;;;4.10;;
15637;SDS011;26604;53.596;10.042;2023-06-22T01:06:19;7.68;;;3.97;;
15637;SDS011;26604;53.596;10.042;2023-06-22T01:09:12;6.07;;;3.80;;
15637;SDS011;26604;53.596;10.042;2023-06-22T01:11:45;5.75;;;3.80;;
15637;SDS011;26604;53.596;10.042;2023-06-22T01:14:18;8.18;;;4.55;;
15637;SDS011;26604;53.596;10.042;2023-06-22T01:16:49;5.82;;;3.53;;
15637;SDS011;26604;53.596;10.042;2023-06-22T01:19:27;8.32;;;4.03;;
15637;SDS011;26604;53.596;10.042;2023-06-22T01:22:01;8.90;;;5.15;;
15637;SDS011;26604;53.596;10.042;2023-06-22T01:24:31;5.05;;;3.80;;
15637;SDS011;26604;53.596;10.042;2023-06-22T01:27:09;9.98;;;4.28;;
15637;SDS011;26604;53.596;10.042;2023-06-22T01:29:49;9.63;;;4.82;;
15637;SDS011;26604;53.596;10.042;2023-06-22T01:32:18;6.60;;;4.82;;
15637;SDS011;26604;53.596;10.042;2023-06-22T01:34:46;8.10;;;4.40;;
15637;SDS011;26604;53.596;10.042;2023-06-22T01:37:14;10.82;;;4.47;;
15637;SDS011;26604;53.596;10.042;2023-06-22T01:39:42;7.82;;;4.07;;
15637;SDS011;26604;53.596;10.042;2023-06-22T01:42:09;7.97;;;4.55;;
15637;SDS011;26604;53.596;10.042;2023-06-22T01:44:36;9.18;;;4.13;;
15637;SDS011;26604;53.596;10.042;2023-06-22T01:47:05;8.85;;;4.50;;
15637;SDS011;26604;53.596;10.042;2023-06-22T01:49:33;11.50;;;4.68;;
15637;SDS011;26604;53.596;10.042;2023-06-22T01:52:00;6.13;;;4.28;;
15637;SDS011;26604;53.596;10.042;2023-06-22T01:54:29;8.00;;;5.07;;
15637;SDS011;26604;53.596;10.042;2023-06-22T01:56:56;7.18;;;4.47;;
15637;SDS011;26604;53.596;10.042;2023-06-22T01:59:25;6.75;;;4.75;;
15637;SDS011;26604;53.596;10.042;2023-06-22T02:01:59;8.43;;;5.07;;
15637;SDS011;26604;53.596;10.042;2023-06-22T02:04:33;8.98;;;4.88;;
15637;SDS011;26604;53.596;10.042;2023-06-22T02:07:05;8.27;;;5.28;;
15637;SDS011;26604;53.596;10.042;2023-06-22T02:09:35;7.38;;;4.57;;
15637;SDS011;26604;53.596;10.042;2023-06-22T02:12:05;6.32;;;4.28;;
15637;SDS011;26604;53.596;10.042;2023-06-22T02:14:34;7.25;;;4.93;;
15637;SDS011;26604;53.596;10.042;2023-06-22T02:17:01;7.18;;;4.35;;
15637;SDS011;26604;53.596;10.042;2023-06-22T02:19:35;9.65;;;4.63;;
15637;SDS011;26604;53.596;10.042;2023-06-22T02:22:02;7.78;;;4.97;;
15637;SDS011;26604;53.596;10.042;2023-06-22T02:24:30;8.25;;;4.82;;
15637;SDS011;26604;53.596;10.042;2023-06-22T02:26:58;9.05;;;4.80;;
15637;SDS011;26604;53.596;10.042;2023-06-22T02:29:25;8.18;;;4.65;;
15637;SDS011;26604;53.596;10.042;2023-06-22T02:31:53;9.55;;;5.90;;
15637;SDS011;26604;53.596;10.042;2023-06-22T02:34:20;8.25;;;5.47;;
15637;SDS011;26604;53.596;10.042;2023-06-22T02:36:49;10.63;;;6.13;;
15637;SDS011;26604;53.596;10.042;2023-06-22T02:39:18;9.18;;;5.55;;
15637;SDS011;26604;53.596;10.042;2023-06-22T02:41:47;10.52;;;6.55;;
15637;SDS011;26604;53.596;10.042;2023-06-22T02:44:14;10.25;;;6.03;;
15637;SDS011;26604;53.596;10.042;2023-06-22T02:46:41;9.70;;;6.18;;
15637;SDS011;26604;53.596;10.042;2023-06-22T02:49:07;10.57;;;6.60;;
15637;SDS011;26604;53.596;10.042;2023-06-22T02:51:34;10.63;;;5.85;;
15637;SDS011;26604;53.596;10.042;2023-06-22T02:54:03;10.20;;;6.03;;
15637;SDS011;26604;53.596;10.042;2023-06-22T02:56:30;10.02;;;5.95;;
15637;SDS011;26604;53.596;10.042;2023-06-22T02:58:57;8.73;;;5.22;;
15637;SDS011;26604;53.596;10.042;2023-06-22T03:01:25;9.73;;;5.05;;
15637;SDS011;26604;53.596;10.042;2023-06-22T03:03:53;11.00;;;5.30;;
15637;SDS011;26604;53.596;10.042;2023-06-22T03:06:20;8.07;;;5.45;;
15637;SDS011;26604;53.596;10.042;2023-06-22T03:08:48;11.10;;;5.82;;
15637;SDS011;26604;53.596;10.042;2023-06-22T03:11:17;9.02;;;5.93;;
15637;SDS011;26604;53.596;10.042;2023-06-22T03:13:44;8.68;;;5.10;;
15637;SDS011;26604;53.596;10.042;2023-06-22T03:16:11;7.78;;;5.78;;
15637;SDS011;26604;53.596;10.042;2023-06-22T03:18:38;10.15;;;6.53;;
15637;SDS011;26604;53.596;10.042;2023-06-22T03:21:05;9.10;;;6.13;;
15637;SDS011;26604;53.596;10.042;2023-06-22T03:23:32;9.75;;;6.60;;
15637;SDS011;26604;53.596;10.042;2023-06-22T03:25:59;10.55;;;6.25;;
15637;SDS011;26604;53.596;10.042;2023-06-22T03:28:27;9.60;;;5.55;;
15637;SDS011;26604;53.596;10.042;2023-06-22T03:30:54;8.25;;;5.60;;
15637;SDS011;26604;53.596;10.042;2023-06-22T03:33:23;8.80;;;6.25;;
15637;SDS011;26604;53.596;10.042;2023-06-22T03:35:50;12.30;;;6.03;;
15637;SDS011;26604;53.596;10.042;2023-06-22T03:38:17;10.07;;;6.10;;
15637;SDS011;26604;53.596;10.042;2023-06-22T03:40:43;10.57;;;5.97;;
15637;SDS011;26604;53.596;10.042;2023-06-22T03:43:10;10.07;;;6.13;;
15637;SDS011;26604;53.596;10.042;2023-06-22T03:45:39;10.52;;;6.53;;
15637;SDS011;26604;53.596;10.042;2023-06-22T03:48:06;9.93;;;6.13;;
15637;SDS011;26604;53.596;10.042;2023-06-22T03:50:33;6.55;;;5.50;;
15637;SDS011;26604;53.596;10.042;2023-06-22T03:53:00;8.13;;;5.47;;
15637;SDS011;26604;53.596;10.042;2023-06-22T03:55:27;6.45;;;4.45;;
15637;SDS011;26604;53.596;10.042;2023-06-22T03:57:53;8.43;;;5.20;;
15637;SDS011;26604;53.596;10.042;2023-06-22T04:00:22;9.25;;;5.38;;
15637;SDS011;26604;53.596;10.042;2023-06-22T04:02:50;8.00;;;5.05;;
15637;SDS011;26604;53.596;10.042;2023-06-22T04:05:17;8.77;;;5.88;;
15637;SDS011;26604;53.596;10.042;2023-06-22T04:07:44;8.65;;;5.32;;
15637;SDS011;26604;53.596;10.042;2023-06-22T04:10:11;10.30;;;6.03;;
15637;SDS011;26604;53.596;10.042;2023-06-22T04:12:38;10.32;;;5.28;;
15637;SDS011;26604;53.596;10.042;2023-06-22T04:15:05;10.15;;;5.68;;
15637;SDS011;26604;53.596;10.042;2023-06-22T04:17:32;8.63;;;5.07;;
15637;SDS011;26604;53.596;10.042;2023-06-22T04:20:01;8.30;;;5.35;;
15637;SDS011;26604;53.596;10.042;2023-06-22T04:22:30;6.25;;;4.80;;
15637;SDS011;26604;53.596;10.042;2023-06-22T04:24:57;10.38;;;5.30;;
15637;SDS011;26604;53.596;10.042;2023-06-22T04:27:23;9.82;;;5.45;;
15637;SDS011;26604;53.596;10.042;2023-06-22T04:29:50;9.57;;;5.30;;
15637;SDS011;26604;53.596;10.042;2023-06-22T04:32:17;8.13;;;5.32;;
15637;SDS011;26604;53.596;10.042;2023-06-22T04:34:44;7.70;;;4.53;;
15637;SDS011;26604;53.596;10.042;2023-06-22T04:37:12;9.00;;;5.13;;
15637;SDS011;26604;53.596;10.042;2023-06-22T04:39:40;7.53;;;4.97;;
15637;SDS011;26604;53.596;10.042;2023-06-22T04:42:08;10.05;;;5.35;;
15637;SDS011;26604;53.596;10.042;2023-06-22T04:44:34;10.65;;;5.82;;
15637;SDS011;26604;53.596;10.042;2023-06-22T04:47:01;7.78;;;4.80;;
15637;SDS011;26604;53.596;10.042;2023-06-22T04:49:33;6.72;;;4.57;;
15637;SDS011;26604;53.596;10.042;2023-06-22T04:52:02;8.68;;;5.47;;
15637;SDS011;26604;53.596;10.042;2023-06-22T04:54:32;7.10;;;4.50;;
15637;SDS011;26604;53.596;10.042;2023-06-22T04:56:59;8.48;;;5.15;;
15637;SDS011;26604;53.596;10.042;2023-06-22T04:59:26;7.03;;;4.28;;
15637;SDS011;26604;53.596;10.042;2023-06-22T05:01:54;9.07;;;5.05;;
15637;SDS011;26604;53.596;10.042;2023-06-22T05:04:22;10.88;;;5.15;;
15637;SDS011;26604;53.596;10.042;2023-06-22T05:06:49;6.47;;;4.30;;
15637;SDS011;26604;53.596;10.042;2023-06-22T05:09:16;7.88;;;4.20;;
15637;SDS011;26604;53.596;10.042;2023-06-22T05:11:44;5.30;;;3.67;;
15637;SDS011;26604;53.596;10.042;2023-06-22T05:14:12;7.47;;;3.85;;
15637;SDS011;26604;53.596;10.042;2023-06-22T05:16:40;8.50;;;4.30;;
15637;SDS011;26604;53.596;10.042;2023-06-22T05:19:08;5.32;;;3.40;;
15637;SDS011;26604;53.596;10.042;2023-06-22T05:21:35;6.03;;;3.80;;
15637;SDS011;26604;53.596;10.042;2023-06-22T05:24:02;5.78;;;3.55;;
15637;SDS011;26604;53.596;10.042;2023-06-22T05:26:30;7.40;;;3.35;;
15637;SDS011;26604;53.596;10.042;2023-06-22T05:28:59;8.48;;;3.67;;
15637;SDS011;26604;53.596;10.042;2023-06-22T05:31:28;7.93;;;3.47;;
15637;SDS011;26604;53.596;10.042;2023-06-22T05:33:55;6.25;;;3.47;;
15637;SDS011;26604;53.596;10.042;2023-06-22T05:36:22;6.15;;;3.40;;
15637;SDS011;26604;53.596;10.042;2023-06-22T05:38:50;6.65;;;3.20;;
15637;SDS011;26604;53.596;10.042;2023-06-22T05:41:18;5.25;;;3.25;;
15637;SDS011;26604;53.596;10.042;2023-06-22T05:43:45;3.58;;;2.53;;
15637;SDS011;26604;53.596;10.042;2023-06-22T05:46:13;5.32;;;3.10;;
15637;SDS011;26604;53.596;10.042;2023-06-22T05:48:40;4.85;;;3.25;;
15637;SDS011;26604;53.596;10.042;2023-06-22T05:51:07;7.25;;;3.10;;
15637;SDS011;26604;53.596;10.042;2023-06-22T05:53:34;5.47;;;3.25;;
15637;SDS011;26604;53.596;10.042;2023-06-22T05:56:01;5.22;;;2.95;;
15637;SDS011;26604;53.596;10.042;2023-06-22T05:58:28;4.30;;;2.85;;
15637;SDS011;26604;53.596;10.042;2023-06-22T06:00:54;7.55;;;2.65;;
15637;SDS011;26604;53.596;10.042;2023-06-22T06:03:23;3.35;;;2.65;;
15637;SDS011;26604;53.596;10.042;2023-06-22T06:05:49;3.85;;;2.38;;
15637;SDS011;26604;53.596;10.042;2023-06-22T06:08:16;3.63;;;2.63;;
15637;SDS011;26604;53.596;10.042;2023-06-22T06:10:43;3.50;;;2.70;;
15637;SDS011;26604;53.596;10.042;2023-06-22T06:13:10;6.78;;;3.10;;
15637;SDS011;26604;53.596;10.042;2023-06-22T06:15:37;3.80;;;2.47;;
15637;SDS011;26604;53.596;10.042;2023-06-22T06:18:04;4.45;;;2.55;;
15637;SDS011;26604;53.596;10.042;2023-06-22T06:20:33;4.80;;;2.25;;
15637;SDS011;26604;53.596;10.042;2023-06-22T06:23:00;5.28;;;2.95;;
15637;SDS011;26604;53.596;10.042;2023-06-22T06:25:27;4.32;;;2.40;;
15637;SDS011;26604;53.596;10.042;2023-06-22T06:27:54;4.95;;;2.45;;
15637;SDS011;26604;53.596;10.042;2023-06-22T06:30:21;3.92;;;2.60;;
15637;SDS011;26604;53.596;10.042;2023-06-22T06:32:49;4.22;;;2.70;;
15637;SDS011;26604;53.596;10.042;2023-06-22T06:35:16;7.45;;;2.30;;
15637;SDS011;26604;53.596;10.042;2023-06-22T06:37:45;3.08;;;2.10;;
15637;SDS011;26604;53.596;10.042;2023-06-22T06:40:15;3.08;;;2.13;;
15637;SDS011;26604;53.596;10.042;2023-06-22T06:42:43;4.97;;;2.67;;
15637;SDS011;26604;53.596;10.042;2023-06-22T06:45:11;4.60;;;2.47;;
15637;SDS011;26604;53.596;10.042;2023-06-22T06:47:38;5.03;;;3.00;;
15637;SDS011;26604;53.596;10.042;2023-06-22T06:50:06;6.13;;;2.90;;
15637;SDS011;26604;53.596;10.042;2023-06-22T06:52:33;5.50;;;2.65;;
15637;SDS011;26604;53.596;10.042;2023-06-22T06:55:02;5.18;;;2.83;;
15637;SDS011;26604;53.596;10.042;2023-06-22T06:57:33;4.05;;;2.50;;
15637;SDS011;26604;53.596;10.042;2023-06-22T07:00:02;5.25;;;2.50;;
15637;SDS011;26604;53.596;10.042;2023-06-22T07:02:35;4.85;;;2.88;;
15637;SDS011;26604;53.596;10.042;2023-06-22T07:05:02;4.43;;;2.63;;
15637;SDS011;26604;53.596;10.042;2023-06-22T07:07:29;6.30;;;3.15;;
15637;SDS011;26604;53.596;10.042;2023-06-22T07:09:56;5.38;;;3.22;;
15637;SDS011;26604;53.596;10.042;2023-06-22T07:12:24;6.20;;;2.80;;
15637;SDS011;26604;53.596;10.042;2023-06-22T07:14:51;6.20;;;3.10;;
15637;SDS011;26604;53.596;10.042;2023-06-22T07:17:18;6.03;;;3.10;;
15637;SDS011;26604;53.596;10.042;2023-06-22T07:19:45;6.70;;;3.17;;
15637;SDS011;26604;53.596;10.042;2023-06-22T07:22:12;4.53;;;2.85;;
15637;SDS011;26604;53.596;10.042;2023-06-22T07:24:39;6.85;;;3.20;;
15637;SDS011;26604;53.596;10.042;2023-06-22T07:27:06;4.55;;;2.80;;
15637;SDS011;26604;53.596;10.042;2023-06-22T07:29:37;5.15;;;2.90;;
15637;SDS011;26604;53.596;10.042;2023-06-22T07:32:06;4.43;;;2.70;;
15637;SDS011;26604;53.596;10.042;2023-06-22T07:34:33;7.28;;;2.88;;
15637;SDS011;26604;53.596;10.042;2023-06-22T07:37:00;5.53;;;3.03;;
15637;SDS011;26604;53.596;10.042;2023-06-22T07:39:27;5.35;;;2.90;;
15637;SDS011;26604;53.596;10.042;2023-06-22T07:41:56;3.95;;;2.42;;
15637;SDS011;26604;53.596;10.042;2023-06-22T07:44:23;5.50;;;3.25;;
15637;SDS011;26604;53.596;10.042;2023-06-22T07:46:52;9.18;;;2.90;;
15637;SDS011;26604;53.596;10.042;2023-06-22T07:49:19;9.13;;;3.60;;
15637;SDS011;26604;53.596;10.042;2023-06-22T07:51:45;7.30;;;2.45;;
15637;SDS011;26604;53.596;10.042;2023-06-22T07:54:12;4.22;;;2.78;;
15637;SDS011;26604;53.596;10.042;2023-06-22T07:56:40;5.13;;;2.88;;
15637;SDS011;26604;53.596;10.042;2023-06-22T07:59:08;4.93;;;2.88;;
15637;SDS011;26604;53.596;10.042;2023-06-22T08:01:35;4.55;;;2.20;;
15637;SDS011;26604;53.596;10.042;2023-06-22T08:04:05;3.55;;;2.30;;
15637;SDS011;26604;53.596;10.042;2023-06-22T08:06:32;9.73;;;2.88;;
15637;SDS011;26604;53.596;10.042;2023-06-22T08:08:59;3.85;;;2.42;;
15637;SDS011;26604;53.596;10.042;2023-06-22T08:11:26;6.18;;;3.00;;
15637;SDS011;26604;53.596;10.042;2023-06-22T08:13:53;3.97;;;2.30;;
15637;SDS011;26604;53.596;10.042;2023-06-22T08:16:23;4.97;;;2.38;;
15637;SDS011;26604;53.596;10.042;2023-06-22T08:18:50;4.90;;;2.60;;
15637;SDS011;26604;53.596;10.042;2023-06-22T08:21:18;5.10;;;2.40;;
15637;SDS011;26604;53.596;10.042;2023-06-22T08:23:45;3.53;;;2.75;;
15637;SDS011;26604;53.596;10.042;2023-06-22T08:26:13;4.18;;;2.75;;
15637;SDS011;26604;53.596;10.042;2023-06-22T08:28:40;4.60;;;2.40;;
15637;SDS011;26604;53.596;10.042;2023-06-22T08:31:07;3.70;;;2.88;;
15637;SDS011;26604;53.596;10.042;2023-06-22T08:33:39;5.07;;;2.72;;
15637;SDS011;26604;53.596;10.042;2023-06-22T08:36:06;3.03;;;2.30;;
15637;SDS011;26604;53.596;10.042;2023-06-22T08:38:34;3.88;;;2.47;;
15637;SDS011;26604;53.596;10.042;2023-06-22T08:41:01;3.20;;;2.38;;
15637;SDS011;26604;53.596;10.042;2023-06-22T08:43:28;4.00;;;2.50;;
15637;SDS011;26604;53.596;10.042;2023-06-22T08:45:55;3.13;;;2.40;;
15637;SDS011;26604;53.596;10.042;2023-06-22T08:48:22;5.03;;;2.45;;
15637;SDS011;26604;53.596;10.042;2023-06-22T08:50:49;3.67;;;2.20;;
15637;SDS011;26604;53.596;10.042;2023-06-22T08:53:15;3.92;;;2.78;;
15637;SDS011;26604;53.596;10.042;2023-06-22T08:55:44;7.75;;;4.13;;
15637;SDS011;26604;53.596;10.042;2023-06-22T08:58:11;3.40;;;2.38;;
15637;SDS011;26604;53.596;10.042;2023-06-22T09:00:38;2.33;;;1.90;;
15637;SDS011;26604;53.596;10.042;2023-06-22T09:03:05;3.50;;;2.50;;
15637;SDS011;26604;53.596;10.042;2023-06-22T09:05:31;3.17;;;2.20;;
15637;SDS011;26604;53.596;10.042;2023-06-22T09:07:58;5.13;;;2.42;;
15637;SDS011;26604;53.596;10.042;2023-06-22T09:10:25;5.13;;;2.22;;
15637;SDS011;26604;53.596;10.042;2023-06-22T09:12:54;3.80;;;2.40;;
15637;SDS011;26604;53.596;10.042;2023-06-22T09:15:21;4.35;;;2.50;;
15637;SDS011;26604;53.596;10.042;2023-06-22T09:17:48;4.60;;;2.38;;
15637;SDS011;26604;53.596;10.042;2023-06-22T09:20:15;7.25;;;2.92;;
15637;SDS011;26604;53.596;10.042;2023-06-22T09:22:42;4.28;;;2.50;;
15637;SDS011;26604;53.596;10.042;2023-06-22T09:25:09;8.82;;;3.38;;
15637;SDS011;26604;53.596;10.042;2023-06-22T09:27:36;5.95;;;2.78;;
15637;SDS011;26604;53.596;10.042;2023-06-22T09:30:05;6.60;;;2.95;;
15637;SDS011;26604;53.596;10.042;2023-06-22T09:32:32;8.30;;;2.90;;
15637;SDS011;26604;53.596;10.042;2023-06-22T09:35:02;5.00;;;2.97;;
15637;SDS011;26604;53.596;10.042;2023-06-22T09:37:32;6.15;;;2.72;;
15637;SDS011;26604;53.596;10.042;2023-06-22T09:39:58;4.20;;;2.50;;
15637;SDS011;26604;53.596;10.042;2023-06-22T09:42:25;3.92;;;2.80;;
15637;SDS011;26604;53.596;10.042;2023-06-22T09:44:52;4.20;;;2.65;;
15637;SDS011;26604;53.596;10.042;2023-06-22T09:47:20;4.35;;;2.38;;
15637;SDS011;26604;53.596;10.042;2023-06-22T09:49:47;7.38;;;2.80;;
15637;SDS011;26604;53.596;10.042;2023-06-22T09:52:15;6.07;;;3.13;;
15637;SDS011;26604;53.596;10.042;2023-06-22T09:54:42;5.10;;;2.60;;
15637;SDS011;26604;53.596;10.042;2023-06-22T09:57:09;5.03;;;2.33;;
15637;SDS011;26604;53.596;10.042;2023-06-22T09:59:36;4.45;;;2.47;;
15637;SDS011;26604;53.596;10.042;2023-06-22T10:02:05;4.95;;;3.30;;
15637;SDS011;26604;53.596;10.042;2023-06-22T10:04:34;5.00;;;3.00;;
15637;SDS011;26604;53.596;10.042;2023-06-22T10:07:01;7.55;;;3.00;;
15637;SDS011;26604;53.596;10.042;2023-06-22T10:09:28;8.02;;;3.70;;
15637;SDS011;26604;53.596;10.042;2023-06-22T10:11:55;5.20;;;2.72;;
15637;SDS011;26604;53.596;10.042;2023-06-22T10:14:22;6.97;;;3.80;;
15637;SDS011;26604;53.596;10.042;2023-06-22T10:16:51;7.13;;;4.10;;
15637;SDS011;26604;53.596;10.042;2023-06-22T10:19:18;6.97;;;3.15;;
15637;SDS011;26604;53.596;10.042;2023-06-22T10:21:46;5.53;;;2.75;;
15637;SDS011;26604;53.596;10.042;2023-06-22T10:24:13;8.68;;;4.28;;
15637;SDS011;26604;53.596;10.042;2023-06-22T10:26:40;5.05;;;3.10;;
15637;SDS011;26604;53.596;10.042;2023-06-22T10:29:07;9.73;;;5.65;;
15637;SDS011;26604;53.596;10.042;2023-06-22T10:31:34;5.82;;;3.10;;
15637;SDS011;26604;53.596;10.042;2023-06-22T10:34:00;4.15;;;2.60;;
15637;SDS011;26604;53.596;10.042;2023-06-22T10:36:27;6.35;;;3.40;;
15637;SDS011;26604;53.596;10.042;2023-06-22T10:38:56;4.05;;;2.38;;
15637;SDS011;26604;53.596;10.042;2023-06-22T10:41:24;7.72;;;3.38;;
15637;SDS011;26604;53.596;10.042;2023-06-22T10:43:51;5.15;;;2.70;;
15637;SDS011;26604;53.596;10.042;2023-06-22T10:46:18;5.78;;;3.20;;
15637;SDS011;26604;53.596;10.042;2023-06-22T10:48:45;5.65;;;2.90;;
15637;SDS011;26604;53.596;10.042;2023-06-22T10:51:11;8.73;;;3.65;;
15637;SDS011;26604;53.596;10.042;2023-06-22T10:53:38;4.10;;;2.97;;
15637;SDS011;26604;53.596;10.042;2023-06-22T10:56:07;5.38;;;2.97;;
15637;SDS011;26604;53.596;10.042;2023-06-22T10:58:33;4.72;;;3.83;;
15637;SDS011;26604;53.596;10.042;2023-06-22T11:01:00;6.10;;;4.00;;
15637;SDS011;26604;53.596;10.042;2023-06-22T11:03:28;4.93;;;3.03;;
15637;SDS011;26604;53.596;10.042;2023-06-22T11:05:55;4.57;;;3.10;;
15637;SDS011;26604;53.596;10.042;2023-06-22T11:08:21;7.78;;;3.17;;
15637;SDS011;26604;53.596;10.042;2023-06-22T11:10:50;4.50;;;3.70;;
15637;SDS011;26604;53.596;10.042;2023-06-22T11:13:19;3.75;;;3.13;;
15637;SDS011;26604;53.596;10.042;2023-06-22T11:15:46;5.88;;;3.40;;
15637;SDS011;26604;53.596;10.042;2023-06-22T11:18:13;10.50;;;5.13;;
15637;SDS011;26604;53.596;10.042;2023-06-22T11:20:39;6.20;;;3.33;;
15637;SDS011;26604;53.596;10.042;2023-06-22T11:23:06;6.00;;;3.55;;
15637;SDS011;26604;53.596;10.042;2023-06-22T11:25:33;5.85;;;3.90;;
15637;SDS011;26604;53.596;10.042;2023-06-22T11:28:01;9.15;;;5.88;;
15637;SDS011;26604;53.596;10.042;2023-06-22T11:30:29;5.32;;;3.22;;
15637;SDS011;26604;53.596;10.042;2023-06-22T11:32:56;3.35;;;3.00;;
15637;SDS011;26604;53.596;10.042;2023-06-22T11:35:24;6.93;;;3.65;;
15637;SDS011;26604;53.596;10.042;2023-06-22T11:37:52;5.63;;;3.15;;
15637;SDS011;26604;53.596;10.042;2023-06-22T11:40:19;6.10;;;3.70;;
15637;SDS011;26604;53.596;10.042;2023-06-22T11:42:46;5.55;;;3.28;;
15637;SDS011;26604;53.596;10.042;2023-06-22T11:45:13;5.65;;;3.50;;
15637;SDS011;26604;53.596;10.042;2023-06-22T11:47:41;3.83;;;2.97;;
15637;SDS011;26604;53.596;10.042;2023-06-22T11:50:08;6.07;;;3.33;;
15637;SDS011;26604;53.596;10.042;2023-06-22T11:52:35;5.90;;;3.45;;
15637;SDS011;26604;53.596;10.042;2023-06-22T11:55:02;5.03;;;3.42;;
15637;SDS011;26604;53.596;10.042;2023-06-22T11:57:32;7.45;;;5.15;;
15637;SDS011;26604;53.596;10.042;2023-06-22T11:59:59;7.18;;;3.70;;
15637;SDS011;26604;53.596;10.042;2023-06-22T12:02:26;6.38;;;3.35;;
15637;SDS011;26604;53.596;10.042;2023-06-22T12:04:55;4.53;;;3.40;;
15637;SDS011;26604;53.596;10.042;2023-06-22T12:07:23;3.85;;;3.03;;
15637;SDS011;26604;53.596;10.042;2023-06-22T12:09:50;6.40;;;3.13;;
15637;SDS011;26604;53.596;10.042;2023-06-22T12:12:16;3.88;;;3.05;;
15637;SDS011;26604;53.596;10.042;2023-06-22T12:14:43;7.95;;;3.88;;
15637;SDS011;26604;53.596;10.042;2023-06-22T12:17:10;4.90;;;3.63;;
15637;SDS011;26604;53.596;10.042;2023-06-22T12:19:37;5.82;;;3.08;;
15637;SDS011;26604;53.596;10.042;2023-06-22T12:22:05;5.15;;;3.97;;
15637;SDS011;26604;53.596;10.042;2023-06-22T12:24:32;4.38;;;3.92;;
15637;SDS011;26604;53.596;10.042;2023-06-22T12:26:59;5.43;;;4.10;;
15637;SDS011;26604;53.596;10.042;2023-06-22T12:29:28;6.32;;;4.20;;
15637;SDS011;26604;53.596;10.042;2023-06-22T12:31:55;7.07;;;3.67;;
15637;SDS011;26604;53.596;10.042;2023-06-22T12:34:22;5.95;;;4.10;;
15637;SDS011;26604;53.596;10.042;2023-06-22T12:36:49;6.15;;;3.30;;
15637;SDS011;26604;53.596;10.042;2023-06-22T12:39:17;4.57;;;3.17;;
15637;SDS011;26604;53.596;10.042;2023-06-22T12:41:44;5.50;;;3.65;;
15637;SDS011;26604;53.596;10.042;2023-06-22T12:44:11;4.47;;;3.15;;
15637;SDS011;26604;53.596;10.042;2023-06-22T12:46:37;4.80;;;3.83;;
15637;SDS011;26604;53.596;10.042;2023-06-22T12:49:04;5.95;;;3.60;;
15637;SDS011;26604;53.596;10.042;2023-06-22T12:51:31;8.85;;;4.65;;
15637;SDS011;26604;53.596;10.042;2023-06-22T12:53:59;5.43;;;3.67;;
15637;SDS011;26604;53.596;10.042;2023-06-22T12:56:27;4.95;;;3.17;;
15637;SDS011;26604;53.596;10.042;2023-06-22T12:58:54;4.03;;;3.58;;
15637;SDS011;26604;53.596;10.042;2023-06-22T13:01:20;4.70;;;3.95;;
15637;SDS011;26604;53.596;10.042;2023-06-22T13:03:48;6.25;;;4.30;;
15637;SDS011;26604;53.596;10.042;2023-06-22T13:06:14;8.60;;;3.80;;
15637;SDS011;26604;53.596;10.042;2023-06-22T13:08:41;6.85;;;3.85;;
15637;SDS011;26604;53.596;10.042;2023-06-22T13:11:08;5.07;;;4.32;;
15637;SDS011;26604;53.596;10.042;2023-06-22T13:13:36;5.03;;;3.85;;
15637;SDS011;26604;53.596;10.042;2023-06-22T13:16:04;5.10;;;4.20;;
15637;SDS011;26604;53.596;10.042;2023-06-22T13:18:31;5.80;;;4.20;;
15637;SDS011;26604;53.596;10.042;2023-06-22T13:20:59;10.50;;;4.10;;
15637;SDS011;26604;53.596;10.042;2023-06-22T13:23:26;4.72;;;3.85;;
15637;SDS011;26604;53.596;10.042;2023-06-22T13:25:52;4.95;;;3.38;;
15637;SDS011;26604;53.596;10.042;2023-06-22T13:28:20;7.88;;;4.00;;
15637;SDS011;26604;53.596;10.042;2023-06-22T13:30:48;4.85;;;3.58;;
15637;SDS011;26604;53.596;10.042;2023-06-22T13:33:15;6.25;;;4.30;;
15637;SDS011;26604;53.596;10.042;2023-06-22T13:35:42;6.82;;;4.45;;
15637;SDS011;26604;53.596;10.042;2023-06-22T13:38:09;5.82;;;4.22;;
15637;SDS011;26604;53.596;10.042;2023-06-22T13:40:36;4.32;;;3.80;;
15637;SDS011;26604;53.596;10.042;2023-06-22T13:43:04;5.07;;;3.90;;
15637;SDS011;26604;53.596;10.042;2023-06-22T13:45:33;7.53;;;3.90;;
15637;SDS011;26604;53.596;10.042;2023-06-22T13:48:02;4.32;;;3.90;;
15637;SDS011;26604;53.596;10.042;2023-06-22T13:50:29;7.78;;;4.47;;
15637;SDS011;26604;53.596;10.042;2023-06-22T13:52:55;5.57;;;4.30;;
15637;SDS011;26604;53.596;10.042;2023-06-22T13:55:22;5.43;;;3.97;;
15637;SDS011;26604;53.596;10.042;2023-06-22T13:57:49;6.72;;;4.25;;
15637;SDS011;26604;53.596;10.042;2023-06-22T14:00:17;6.10;;;4.28;;
15637;SDS011;26604;53.596;10.042;2023-06-22T14:02:44;4.90;;;3.72;;
15637;SDS011;26604;53.596;10.042;2023-06-22T14:05:12;5.70;;;4.30;;
15637;SDS011;26604;53.596;10.042;2023-06-22T14:07:39;6.55;;;4.63;;
15637;SDS011;26604;53.596;10.042;2023-06-22T14:10:06;5.28;;;4.00;;
15637;SDS011;26604;53.596;10.042;2023-06-22T14:12:33;6.65;;;3.80;;
15637;SDS011;26604;53.596;10.042;2023-06-22T14:15:00;4.63;;;4.18;;
15637;SDS011;26604;53.596;10.042;2023-06-22T14:17:27;4.38;;;3.97;;
15637;SDS011;26604;53.596;10.042;2023-06-22T14:19:54;4.95;;;3.53;;
15637;SDS011;26604;53.596;10.042;2023-06-22T14:22:22;5.90;;;3.78;;
15637;SDS011;26604;53.596;10.042;2023-06-22T14:24:49;5.07;;;4.05;;
15637;SDS011;26604;53.596;10.042;2023-06-22T14:27:16;7.15;;;4.10;;
15637;SDS011;26604;53.596;10.042;2023-06-22T14:29:43;5.53;;;3.67;;
15637;SDS011;26604;53.596;10.042;2023-06-22T14:32:10;6.28;;;4.43;;
15637;SDS011;26604;53.596;10.042;2023-06-22T14:34:37;8.25;;;4.25;;
15637;SDS011;26604;53.596;10.042;2023-06-22T14:37:05;4.68;;;3.67;;